createdAt,value
2023-04-16T00:00:17.398Z,988.79
2023-04-16T00:01:17.404Z,988.77
2023-04-16T00:02:17.551Z,988.79
2023-04-16T00:03:17.649Z,988.80
2023-04-16T00:04:17.528Z,988.80
2023-04-16T00:05:17.345Z,988.80
2023-04-16T00:06:17.347Z,988.78
2023-04-16T00:07:17.328Z,988.75
2023-04-16T00:08:17.308Z,988.79
2023-04-16T00:09:17.314Z,988.78
2023-04-16T00:10:17.301Z,988.77
2023-04-16T00:11:17.308Z,988.77
2023-04-16T00:12:17.288Z,988.78
2023-04-16T00:13:17.258Z,988.77
2023-04-16T00:14:17.269Z,988.79
2023-04-16T00:15:17.268Z,988.79
2023-04-16T00:16:17.281Z,988.77
2023-04-16T00:17:17.227Z,988.79
2023-04-16T00:18:17.261Z,988.77
2023-04-16T00:19:17.205Z,988.79
2023-04-16T00:20:17.200Z,988.80
2023-04-16T00:21:17.205Z,988.78
2023-04-16T00:22:17.178Z,988.77
2023-04-16T00:23:17.168Z,988.78
2023-04-16T00:24:17.161Z,988.80
2023-04-16T00:25:17.153Z,988.78
2023-04-16T00:26:17.154Z,988.77
2023-04-16T00:27:17.134Z,988.79
2023-04-16T00:28:17.130Z,988.78
2023-04-16T00:29:17.093Z,988.81
2023-04-16T00:30:17.085Z,988.79
2023-04-16T00:31:17.146Z,988.82
2023-04-16T00:32:17.170Z,988.83
2023-04-16T00:33:17.093Z,988.83
2023-04-16T00:34:17.072Z,988.84
2023-04-16T00:35:17.032Z,988.83
2023-04-16T00:36:17.035Z,988.84
2023-04-16T00:37:17.035Z,988.86
2023-04-16T00:38:17.006Z,988.85
2023-04-16T00:39:16.981Z,988.87
2023-04-16T00:40:16.999Z,988.85
2023-04-16T00:41:16.980Z,988.84
2023-04-16T00:42:16.977Z,988.87
2023-04-16T00:43:16.963Z,988.87
2023-04-16T00:44:16.950Z,988.88
2023-04-16T00:45:16.945Z,988.87
2023-04-16T00:46:16.981Z,988.85
2023-04-16T00:47:16.937Z,988.85
2023-04-16T00:48:16.911Z,988.85
2023-04-16T00:49:16.903Z,988.85
2023-04-16T00:50:16.904Z,988.85
2023-04-16T00:51:16.879Z,988.84
2023-04-16T00:52:16.861Z,988.85
2023-04-16T00:53:16.853Z,988.85
2023-04-16T00:54:16.831Z,988.84
2023-04-16T00:55:16.859Z,988.85
2023-04-16T00:56:17.804Z,988.80
2023-04-16T00:57:16.814Z,988.82
2023-04-16T00:58:16.804Z,988.83
2023-04-16T00:59:16.801Z,988.81
2023-04-16T01:00:16.802Z,988.84
2023-04-16T01:01:16.826Z,988.80
2023-04-16T01:02:16.942Z,988.83
2023-04-16T01:03:16.979Z,988.83
2023-04-16T01:04:16.801Z,988.84
2023-04-16T01:05:16.723Z,988.81
2023-04-16T01:06:16.717Z,988.84
2023-04-16T01:07:16.710Z,988.83
2023-04-16T01:08:16.703Z,988.86
2023-04-16T01:09:16.704Z,988.85
2023-04-16T01:10:16.673Z,988.85
2023-04-16T01:11:16.673Z,988.85
2023-04-16T01:12:16.648Z,988.87
2023-04-16T01:13:16.634Z,988.89
2023-04-16T01:14:16.631Z,988.85
2023-04-16T01:15:16.632Z,988.83
2023-04-16T01:16:16.653Z,988.89
2023-04-16T01:17:16.594Z,988.87
2023-04-16T01:18:16.582Z,988.86
2023-04-16T01:19:16.575Z,988.88
2023-04-16T01:20:16.561Z,988.89
2023-04-16T01:21:16.566Z,988.89
2023-04-16T01:22:16.561Z,988.90
2023-04-16T01:23:16.536Z,988.92
2023-04-16T01:24:16.539Z,988.90
2023-04-16T01:25:16.515Z,988.90
2023-04-16T01:26:16.510Z,988.93
2023-04-16T01:27:16.494Z,988.94
2023-04-16T01:28:16.497Z,988.94
2023-04-16T01:29:16.489Z,988.92
2023-04-16T01:30:16.459Z,988.93
2023-04-16T01:31:16.480Z,988.96
2023-04-16T01:32:16.437Z,988.97
2023-04-16T01:33:16.419Z,988.96
2023-04-16T01:34:16.403Z,988.99
2023-04-16T01:35:16.394Z,988.97
2023-04-16T01:36:16.388Z,988.98
2023-04-16T01:37:16.599Z,989.00
2023-04-16T01:38:16.405Z,988.99
2023-04-16T01:39:16.494Z,989.01
2023-04-16T01:40:16.355Z,989.00
2023-04-16T01:41:16.347Z,988.98
2023-04-16T01:42:16.341Z,989.03
2023-04-16T01:43:16.327Z,988.97
2023-04-16T01:44:16.311Z,989.02
2023-04-16T01:45:16.313Z,988.99
2023-04-16T01:46:16.502Z,989.02
2023-04-16T01:47:16.341Z,989.03
2023-04-16T01:48:16.261Z,989.04
2023-04-16T01:49:16.259Z,989.01
2023-04-16T01:50:16.260Z,989.06
2023-04-16T01:51:16.245Z,989.05
2023-04-16T01:52:16.217Z,989.07
2023-04-16T01:53:16.226Z,989.05
2023-04-16T01:54:16.240Z,989.01
2023-04-16T01:55:16.188Z,989.05
2023-04-16T01:56:16.196Z,989.06
2023-04-16T01:57:16.173Z,989.06
2023-04-16T01:58:16.161Z,989.09
2023-04-16T01:59:16.150Z,989.07
2023-04-16T02:00:16.166Z,989.08
2023-04-16T02:01:16.179Z,989.07
2023-04-16T02:02:16.205Z,989.10
2023-04-16T02:03:16.236Z,989.09
2023-04-16T02:04:16.128Z,989.08
2023-04-16T02:05:16.111Z,989.02
2023-04-16T02:06:16.085Z,989.07
2023-04-16T02:07:16.074Z,989.06
2023-04-16T02:08:16.050Z,989.07
2023-04-16T02:09:16.048Z,989.04
2023-04-16T02:10:16.125Z,989.13
2023-04-16T02:11:16.022Z,989.09
2023-04-16T02:12:16.054Z,989.10
2023-04-16T02:13:16.008Z,989.13
2023-04-16T02:14:16.007Z,989.10
2023-04-16T02:15:15.985Z,989.11
2023-04-16T02:16:16.010Z,989.14
2023-04-16T02:17:15.993Z,989.15
2023-04-16T02:18:15.939Z,989.18
2023-04-16T02:19:15.932Z,989.18
2023-04-16T02:20:15.936Z,989.23
2023-04-16T02:21:15.919Z,989.20
2023-04-16T02:22:15.907Z,989.25
2023-04-16T02:23:15.898Z,989.26
2023-04-16T02:24:16.094Z,989.26
2023-04-16T02:25:15.884Z,989.30
2023-04-16T02:26:15.886Z,989.28
2023-04-16T02:27:15.851Z,989.29
2023-04-16T02:28:15.848Z,989.28
2023-04-16T02:29:15.826Z,989.30
2023-04-16T02:30:16.023Z,989.32
2023-04-16T02:31:15.862Z,989.33
2023-04-16T02:32:15.872Z,989.32
2023-04-16T02:33:15.789Z,989.30
2023-04-16T02:34:15.773Z,989.32
2023-04-16T02:35:15.778Z,989.32
2023-04-16T02:36:15.749Z,989.32
2023-04-16T02:37:15.763Z,989.33
2023-04-16T02:38:15.745Z,989.32
2023-04-16T02:39:15.723Z,989.34
2023-04-16T02:40:15.723Z,989.33
2023-04-16T02:41:15.690Z,989.32
2023-04-16T02:42:15.724Z,989.37
2023-04-16T02:43:15.677Z,989.36
2023-04-16T02:44:15.685Z,989.37
2023-04-16T02:45:15.866Z,989.35
2023-04-16T02:46:15.770Z,989.37
2023-04-16T02:47:15.640Z,989.38
2023-04-16T02:48:15.633Z,989.42
2023-04-16T02:49:15.627Z,989.38
2023-04-16T02:50:15.602Z,989.42
2023-04-16T02:51:15.592Z,989.47
2023-04-16T02:52:15.751Z,989.47
2023-04-16T02:53:15.590Z,989.44
2023-04-16T02:54:15.567Z,989.44
2023-04-16T02:55:15.572Z,989.44
2023-04-16T02:56:15.557Z,989.43
2023-04-16T02:57:15.529Z,989.46
2023-04-16T02:58:15.554Z,989.47
2023-04-16T02:59:15.511Z,989.46
2023-04-16T03:00:15.499Z,989.47
2023-04-16T03:01:15.713Z,989.51
2023-04-16T03:02:15.499Z,989.53
2023-04-16T03:03:15.535Z,989.53
2023-04-16T03:04:15.495Z,989.55
2023-04-16T03:05:15.442Z,989.57
2023-04-16T03:06:15.448Z,989.55
2023-04-16T03:07:15.442Z,989.54
2023-04-16T03:08:15.426Z,989.55
2023-04-16T03:09:15.420Z,989.53
2023-04-16T03:10:15.413Z,989.55
2023-04-16T03:11:15.387Z,989.60
2023-04-16T03:12:15.365Z,989.59
2023-04-16T03:13:15.371Z,989.55
2023-04-16T03:14:15.390Z,989.60
2023-04-16T03:15:15.363Z,989.56
2023-04-16T03:16:15.446Z,989.60
2023-04-16T03:17:15.318Z,989.56
2023-04-16T03:18:15.319Z,989.57
2023-04-16T03:19:15.300Z,989.60
2023-04-16T03:20:15.298Z,989.63
2023-04-16T03:21:15.302Z,989.65
2023-04-16T03:22:15.257Z,989.65
2023-04-16T03:23:15.455Z,989.67
2023-04-16T03:24:15.249Z,989.66
2023-04-16T03:25:15.252Z,989.71
2023-04-16T03:26:15.223Z,989.67
2023-04-16T03:27:15.208Z,989.68
2023-04-16T03:28:15.240Z,989.67
2023-04-16T03:29:15.244Z,989.69
2023-04-16T03:30:15.205Z,989.68
2023-04-16T03:31:15.210Z,989.75
2023-04-16T03:32:15.198Z,989.72
2023-04-16T03:33:15.195Z,989.71
2023-04-16T03:34:15.141Z,989.73
2023-04-16T03:35:15.153Z,989.74
2023-04-16T03:36:15.195Z,989.75
2023-04-16T03:37:15.119Z,989.75
2023-04-16T03:38:15.125Z,989.73
2023-04-16T03:39:15.100Z,989.74
2023-04-16T03:40:15.114Z,989.77
2023-04-16T03:41:15.101Z,989.76
2023-04-16T03:42:15.089Z,989.79
2023-04-16T03:43:15.067Z,989.79
2023-04-16T03:44:15.256Z,989.84
2023-04-16T03:45:15.075Z,989.80
2023-04-16T03:46:15.086Z,989.85
2023-04-16T03:47:15.044Z,989.86
2023-04-16T03:48:15.021Z,989.86
2023-04-16T03:49:15.001Z,989.87
2023-04-16T03:50:14.986Z,989.89
2023-04-16T03:51:14.985Z,989.89
2023-04-16T03:52:14.980Z,989.87
2023-04-16T03:53:14.949Z,989.91
2023-04-16T03:54:14.977Z,989.90
2023-04-16T03:55:14.930Z,989.91
2023-04-16T03:56:14.952Z,989.92
2023-04-16T03:57:14.903Z,989.90
2023-04-16T03:58:14.894Z,989.92
2023-04-16T03:59:14.929Z,989.94
2023-04-16T04:00:14.881Z,989.94
2023-04-16T04:01:14.929Z,989.95
2023-04-16T04:02:14.968Z,989.98
2023-04-16T04:03:15.042Z,989.97
2023-04-16T04:04:14.947Z,989.99
2023-04-16T04:05:14.829Z,989.99
2023-04-16T04:06:14.809Z,990.05
2023-04-16T04:07:14.832Z,990.07
2023-04-16T04:08:14.819Z,990.06
2023-04-16T04:09:14.827Z,990.07
2023-04-16T04:10:14.786Z,990.12
2023-04-16T04:11:14.775Z,990.12
2023-04-16T04:12:14.781Z,990.13
2023-04-16T04:13:14.742Z,990.13
2023-04-16T04:14:14.746Z,990.14
2023-04-16T04:15:14.730Z,990.17
2023-04-16T04:16:14.770Z,990.17
2023-04-16T04:17:14.702Z,990.18
2023-04-16T04:18:14.719Z,990.21
2023-04-16T04:19:14.713Z,990.20
2023-04-16T04:20:14.876Z,990.22
2023-04-16T04:21:14.672Z,990.20
2023-04-16T04:22:14.650Z,990.23
2023-04-16T04:23:14.732Z,990.21
2023-04-16T04:24:14.627Z,990.25
2023-04-16T04:25:14.607Z,990.22
2023-04-16T04:26:14.637Z,990.26
2023-04-16T04:27:14.599Z,990.27
2023-04-16T04:28:14.578Z,990.30
2023-04-16T04:29:14.598Z,990.30
2023-04-16T04:30:14.620Z,990.28
2023-04-16T04:31:14.601Z,990.31
2023-04-16T04:32:14.591Z,990.31
2023-04-16T04:33:14.582Z,990.31
2023-04-16T04:34:14.547Z,990.35
2023-04-16T04:35:14.529Z,990.33
2023-04-16T04:36:14.508Z,990.32
2023-04-16T04:37:14.484Z,990.37
2023-04-16T04:38:16.247Z,990.37
2023-04-16T04:39:14.454Z,990.36
2023-04-16T04:40:14.467Z,990.38
2023-04-16T04:41:14.493Z,990.38
2023-04-16T04:42:14.472Z,990.40
2023-04-16T04:43:14.463Z,990.42
2023-04-16T04:44:14.421Z,990.42
2023-04-16T04:45:14.405Z,990.43
2023-04-16T04:46:14.431Z,990.43
2023-04-16T04:47:14.403Z,990.47
2023-04-16T04:48:14.368Z,990.47
2023-04-16T04:49:14.350Z,990.47
2023-04-16T04:50:14.385Z,990.48
2023-04-16T04:51:14.341Z,990.49
2023-04-16T04:52:14.331Z,990.52
2023-04-16T04:53:14.318Z,990.50
2023-04-16T04:54:14.317Z,990.56
2023-04-16T04:55:14.291Z,990.56
2023-04-16T04:56:14.276Z,990.56
2023-04-16T04:57:14.265Z,990.57
2023-04-16T04:58:14.273Z,990.58
2023-04-16T04:59:14.254Z,990.61
2023-04-16T05:00:14.242Z,990.61
2023-04-16T05:01:14.246Z,990.63
2023-04-16T05:02:14.277Z,990.64
2023-04-16T05:03:14.258Z,990.60
2023-04-16T05:04:14.241Z,990.64
2023-04-16T05:05:14.222Z,990.64
2023-04-16T05:06:14.397Z,990.65
2023-04-16T05:07:14.166Z,990.64
2023-04-16T05:08:14.151Z,990.66
2023-04-16T05:09:14.155Z,990.64
2023-04-16T05:10:14.164Z,990.67
2023-04-16T05:11:14.136Z,990.68
2023-04-16T05:12:14.120Z,990.66
2023-04-16T05:13:14.089Z,990.65
2023-04-16T05:14:14.088Z,990.64
2023-04-16T05:15:14.091Z,990.68
2023-04-16T05:16:14.108Z,990.67
2023-04-16T05:17:14.073Z,990.70
2023-04-16T05:18:14.055Z,990.69
2023-04-16T05:19:14.047Z,990.68
2023-04-16T05:20:14.037Z,990.71
2023-04-16T05:21:14.644Z,990.70
2023-04-16T05:22:14.027Z,990.72
2023-04-16T05:23:14.210Z,990.77
2023-04-16T05:24:14.978Z,990.76
2023-04-16T05:25:13.969Z,990.72
2023-04-16T05:26:13.989Z,990.75
2023-04-16T05:27:13.969Z,990.79
2023-04-16T05:28:13.938Z,990.80
2023-04-16T05:29:13.946Z,990.79
2023-04-16T05:30:13.935Z,990.82
2023-04-16T05:31:13.979Z,990.85
2023-04-16T05:32:13.917Z,990.85
2023-04-16T05:33:13.906Z,990.89
2023-04-16T05:34:13.881Z,990.92
2023-04-16T05:35:15.228Z,990.91
2023-04-16T05:36:13.871Z,990.91
2023-04-16T05:37:13.862Z,990.95
2023-04-16T05:38:13.937Z,990.97
2023-04-16T05:39:14.054Z,990.97
2023-04-16T05:40:13.862Z,991.00
2023-04-16T05:41:13.794Z,990.99
2023-04-16T05:42:13.820Z,991.04
2023-04-16T05:43:13.799Z,991.02
2023-04-16T05:44:13.791Z,991.01
2023-04-16T05:45:13.796Z,991.07
2023-04-16T05:46:13.840Z,991.07
2023-04-16T05:47:13.753Z,991.08
2023-04-16T05:48:13.755Z,991.09
2023-04-16T05:49:13.748Z,991.06
2023-04-16T05:50:13.754Z,991.10
2023-04-16T05:51:13.748Z,991.08
2023-04-16T05:52:13.757Z,991.08
2023-04-16T05:53:13.716Z,991.10
2023-04-16T05:54:13.718Z,991.07
2023-04-16T05:55:13.696Z,991.12
2023-04-16T05:56:13.662Z,991.08
2023-04-16T05:57:13.867Z,991.10
2023-04-16T05:58:13.647Z,991.14
2023-04-16T05:59:13.637Z,991.15
2023-04-16T06:00:13.663Z,991.13
2023-04-16T06:01:13.655Z,991.15
2023-04-16T06:02:13.752Z,991.16
2023-04-16T06:03:13.679Z,991.17
2023-04-16T06:04:13.889Z,991.17
2023-04-16T06:05:13.626Z,991.17
2023-04-16T06:06:13.572Z,991.16
2023-04-16T06:07:13.548Z,991.16
2023-04-16T06:08:13.549Z,991.14
2023-04-16T06:09:13.547Z,991.17
2023-04-16T06:10:13.513Z,991.17
2023-04-16T06:11:13.491Z,991.18
2023-04-16T06:12:13.508Z,991.19
2023-04-16T06:13:13.487Z,991.17
2023-04-16T06:14:13.496Z,991.20
2023-04-16T06:15:13.499Z,991.22
2023-04-16T06:16:13.611Z,991.23
2023-04-16T06:17:13.438Z,991.24
2023-04-16T06:18:13.463Z,991.25
2023-04-16T06:19:13.415Z,991.29
2023-04-16T06:20:13.404Z,991.28
2023-04-16T06:21:13.415Z,991.30
2023-04-16T06:22:13.385Z,991.31
2023-04-16T06:23:13.393Z,991.34
2023-04-16T06:24:13.375Z,991.31
2023-04-16T06:25:13.352Z,991.34
2023-04-16T06:26:13.347Z,991.33
2023-04-16T06:27:13.325Z,991.39
2023-04-16T06:28:13.337Z,991.37
2023-04-16T06:29:13.305Z,991.38
2023-04-16T06:30:13.301Z,991.38
2023-04-16T06:31:13.384Z,991.40
2023-04-16T06:32:13.313Z,991.42
2023-04-16T06:33:13.304Z,991.45
2023-04-16T06:34:13.290Z,991.45
2023-04-16T06:35:13.250Z,991.46
2023-04-16T06:36:13.266Z,991.44
2023-04-16T06:37:13.261Z,991.49
2023-04-16T06:38:13.212Z,991.50
2023-04-16T06:39:13.206Z,991.50
2023-04-16T06:40:13.200Z,991.49
2023-04-16T06:41:13.171Z,991.52
2023-04-16T06:42:13.401Z,991.52
2023-04-16T06:43:13.148Z,991.53
2023-04-16T06:44:13.147Z,991.56
2023-04-16T06:45:13.126Z,991.54
2023-04-16T06:46:13.122Z,991.52
2023-04-16T06:47:13.123Z,991.54
2023-04-16T06:48:13.115Z,991.58
2023-04-16T06:49:13.096Z,991.56
2023-04-16T06:50:13.076Z,991.58
2023-04-16T06:51:13.079Z,991.61
2023-04-16T06:52:13.067Z,991.62
2023-04-16T06:53:13.052Z,991.60
2023-04-16T06:54:13.076Z,991.63
2023-04-16T06:55:13.036Z,991.65
2023-04-16T06:56:13.015Z,991.66
2023-04-16T06:57:13.043Z,991.64
2023-04-16T06:58:13.024Z,991.67
2023-04-16T06:59:13.034Z,991.69
2023-04-16T07:00:12.988Z,991.65
2023-04-16T07:01:13.065Z,991.67
2023-04-16T07:02:13.070Z,991.67
2023-04-16T07:03:13.139Z,991.69
2023-04-16T07:04:13.087Z,991.73
2023-04-16T07:05:13.034Z,991.67
2023-04-16T07:06:13.025Z,991.71
2023-04-16T07:07:12.947Z,991.71
2023-04-16T07:08:12.896Z,991.71
2023-04-16T07:09:12.918Z,991.75
2023-04-16T07:10:12.904Z,991.76
2023-04-16T07:11:12.876Z,991.76
2023-04-16T07:12:12.911Z,991.79
2023-04-16T07:13:12.863Z,991.79
2023-04-16T07:14:13.069Z,991.78
2023-04-16T07:15:12.809Z,991.84
2023-04-16T07:16:12.907Z,991.85
2023-04-16T07:17:12.821Z,991.89
2023-04-16T07:18:12.816Z,991.83
2023-04-16T07:19:12.774Z,991.88
2023-04-16T07:20:12.804Z,991.86
2023-04-16T07:21:12.775Z,991.88
2023-04-16T07:22:12.744Z,991.89
2023-04-16T07:23:12.763Z,991.91
2023-04-16T07:24:12.730Z,991.94
2023-04-16T07:25:12.733Z,991.95
2023-04-16T07:26:12.725Z,991.91
2023-04-16T07:27:12.701Z,991.96
2023-04-16T07:28:12.721Z,991.96
2023-04-16T07:29:12.682Z,991.99
2023-04-16T07:30:12.674Z,992.02
2023-04-16T07:31:12.640Z,992.02
2023-04-16T07:32:14.851Z,992.03
2023-04-16T07:33:12.614Z,992.02
2023-04-16T07:34:12.605Z,992.07
2023-04-16T07:35:12.598Z,992.04
2023-04-16T07:36:12.584Z,992.08
2023-04-16T07:37:12.570Z,992.05
2023-04-16T07:38:12.585Z,992.10
2023-04-16T07:39:12.659Z,992.08
2023-04-16T07:40:12.551Z,992.17
2023-04-16T07:41:12.528Z,992.12
2023-04-16T07:42:12.510Z,992.14
2023-04-16T07:43:12.516Z,992.12
2023-04-16T07:44:12.501Z,992.15
2023-04-16T07:45:12.513Z,992.16
2023-04-16T07:46:12.530Z,992.20
2023-04-16T07:47:12.465Z,992.20
2023-04-16T07:48:12.498Z,992.22
2023-04-16T07:49:12.436Z,992.23
2023-04-16T07:50:12.438Z,992.23
2023-04-16T07:51:12.425Z,992.20
2023-04-16T07:52:12.405Z,992.22
2023-04-16T07:53:12.434Z,992.23
2023-04-16T07:54:12.398Z,992.25
2023-04-16T07:55:12.380Z,992.27
2023-04-16T07:56:12.362Z,992.26
2023-04-16T07:57:12.349Z,992.25
2023-04-16T07:58:12.363Z,992.29
2023-04-16T08:00:12.360Z,992.29
2023-04-16T08:01:12.535Z,992.29
2023-04-16T08:02:12.412Z,992.33
2023-04-16T08:03:12.600Z,992.37
2023-04-16T08:04:12.403Z,992.30
2023-04-16T08:05:12.325Z,992.33
2023-04-16T08:06:12.274Z,992.36
2023-04-16T08:07:12.455Z,992.34
2023-04-16T08:08:12.265Z,992.32
2023-04-16T08:09:12.616Z,992.34
2023-04-16T08:10:12.222Z,992.39
2023-04-16T08:11:12.213Z,992.37
2023-04-16T08:12:12.182Z,992.40
2023-04-16T08:13:12.198Z,992.40
2023-04-16T08:14:12.201Z,992.38
2023-04-16T08:15:12.200Z,992.45
2023-04-16T08:16:12.250Z,992.39
2023-04-16T08:17:12.151Z,992.41
2023-04-16T08:18:12.151Z,992.48
2023-04-16T08:19:12.452Z,992.49
2023-04-16T08:20:15.714Z,992.45
2023-04-16T08:21:12.314Z,992.46
2023-04-16T08:22:12.162Z,992.49
2023-04-16T08:23:12.097Z,992.50
2023-04-16T08:24:12.070Z,992.52
2023-04-16T08:25:12.066Z,992.53
2023-04-16T08:26:12.063Z,992.55
2023-04-16T08:27:18.387Z,992.54
2023-04-16T08:28:12.045Z,992.55
2023-04-16T08:29:12.229Z,992.53
2023-04-16T08:30:12.028Z,992.56
2023-04-16T08:31:12.042Z,992.58
2023-04-16T08:32:12.024Z,992.58
2023-04-16T08:33:12.030Z,992.57
2023-04-16T08:34:12.036Z,992.60
2023-04-16T08:35:12.019Z,992.66
2023-04-16T08:36:11.931Z,992.65
2023-04-16T08:37:11.973Z,992.69
2023-04-16T08:38:11.915Z,992.67
2023-04-16T08:39:12.248Z,992.70
2023-04-16T08:40:11.913Z,992.70
2023-04-16T08:41:11.923Z,992.70
2023-04-16T08:42:11.866Z,992.75
2023-04-16T08:43:11.895Z,992.75
2023-04-16T08:44:11.879Z,992.77
2023-04-16T08:45:11.861Z,992.78
2023-04-16T08:46:11.881Z,992.79
2023-04-16T08:47:11.817Z,992.81
2023-04-16T08:48:11.825Z,992.86
2023-04-16T08:49:11.952Z,992.83
2023-04-16T08:50:11.853Z,992.82
2023-04-16T08:51:11.778Z,992.86
2023-04-16T08:52:11.784Z,992.88
2023-04-16T08:53:11.761Z,992.85
2023-04-16T08:54:11.999Z,992.89
2023-04-16T08:55:11.772Z,992.89
2023-04-16T08:56:11.784Z,992.91
2023-04-16T08:57:11.742Z,992.90
2023-04-16T08:58:11.689Z,992.95
2023-04-16T08:59:11.870Z,992.96
2023-04-16T09:00:11.675Z,992.93
2023-04-16T09:01:11.691Z,992.95
2023-04-16T09:02:11.700Z,992.94
2023-04-16T09:03:11.756Z,992.97
2023-04-16T09:04:12.000Z,992.98
2023-04-16T09:05:11.654Z,992.98
2023-04-16T09:06:11.650Z,993.00
2023-04-16T09:07:11.613Z,993.02
2023-04-16T09:08:11.619Z,993.01
2023-04-16T09:09:11.934Z,993.02
2023-04-16T09:10:11.606Z,993.07
2023-04-16T09:11:11.579Z,993.08
2023-04-16T09:12:11.593Z,993.03
2023-04-16T09:13:11.552Z,993.07
2023-04-16T09:14:11.536Z,993.09
2023-04-16T09:15:11.529Z,993.08
2023-04-16T09:16:11.538Z,993.07
2023-04-16T09:17:11.487Z,993.12
2023-04-16T09:18:11.518Z,993.11
2023-04-16T09:19:11.719Z,993.08
2023-04-16T09:20:11.455Z,993.15
2023-04-16T09:21:11.479Z,993.15
2023-04-16T09:22:11.469Z,993.15
2023-04-16T09:23:11.474Z,993.17
2023-04-16T09:24:11.440Z,993.19
2023-04-16T09:25:11.417Z,993.23
2023-04-16T09:26:11.405Z,993.24
2023-04-16T09:27:11.435Z,993.20
2023-04-16T09:28:11.404Z,993.26
2023-04-16T09:29:11.633Z,993.25
2023-04-16T09:30:11.354Z,993.25
2023-04-16T09:31:11.384Z,993.29
2023-04-16T09:32:11.382Z,993.29
2023-04-16T09:33:11.327Z,993.28
2023-04-16T09:34:11.325Z,993.30
2023-04-16T09:35:11.322Z,993.31
2023-04-16T09:36:11.302Z,993.31
2023-04-16T09:37:11.285Z,993.34
2023-04-16T09:38:11.286Z,993.32
2023-04-16T09:39:11.382Z,993.30
2023-04-16T09:40:11.248Z,993.33
2023-04-16T09:41:11.224Z,993.35
2023-04-16T09:42:11.258Z,993.36
2023-04-16T09:43:11.444Z,993.36
2023-04-16T09:44:11.224Z,993.35
2023-04-16T09:45:11.236Z,993.34
2023-04-16T09:46:11.281Z,993.39
2023-04-16T09:47:11.200Z,993.39
2023-04-16T09:48:11.180Z,993.38
2023-04-16T09:49:11.351Z,993.41
2023-04-16T09:50:12.685Z,993.39
2023-04-16T09:51:11.156Z,993.41
2023-04-16T09:52:11.162Z,993.43
2023-04-16T09:53:11.181Z,993.46
2023-04-16T09:54:11.209Z,993.46
2023-04-16T09:55:11.111Z,993.46
2023-04-16T09:56:11.109Z,993.48
2023-04-16T09:57:11.104Z,993.51
2023-04-16T09:58:11.071Z,993.46
2023-04-16T09:59:11.316Z,993.50
2023-04-16T10:00:11.384Z,993.51
2023-04-16T10:01:11.075Z,993.55
2023-04-16T10:02:14.831Z,993.52
2023-04-16T10:03:11.328Z,993.58
2023-04-16T10:04:11.100Z,993.56
2023-04-16T10:05:11.014Z,993.54
2023-04-16T10:06:11.001Z,993.55
2023-04-16T10:07:10.978Z,993.58
2023-04-16T10:08:10.966Z,993.58
2023-04-16T10:09:11.306Z,993.60
2023-04-16T10:10:10.973Z,993.64
2023-04-16T10:11:10.972Z,993.62
2023-04-16T10:12:10.968Z,993.63
2023-04-16T10:13:10.963Z,993.63
2023-04-16T10:14:10.906Z,993.65
2023-04-16T10:15:10.896Z,993.62
2023-04-16T10:16:10.890Z,993.63
2023-04-16T10:17:10.989Z,993.62
2023-04-16T10:18:10.876Z,993.69
2023-04-16T10:19:11.127Z,993.71
2023-04-16T10:20:10.865Z,993.70
2023-04-16T10:21:10.826Z,993.71
2023-04-16T10:22:10.812Z,993.72
2023-04-16T10:23:10.817Z,993.75
2023-04-16T10:24:10.810Z,993.74
2023-04-16T10:25:10.802Z,993.75
2023-04-16T10:26:10.788Z,993.74
2023-04-16T10:27:10.953Z,993.74
2023-04-16T10:28:10.759Z,993.77
2023-04-16T10:29:10.922Z,993.80
2023-04-16T10:30:10.751Z,993.82
2023-04-16T10:31:10.805Z,993.80
2023-04-16T10:32:10.715Z,993.82
2023-04-16T10:33:10.743Z,993.82
2023-04-16T10:34:10.925Z,993.82
2023-04-16T10:35:10.668Z,993.84
2023-04-16T10:36:10.666Z,993.84
2023-04-16T10:37:10.677Z,993.82
2023-04-16T10:38:10.708Z,993.83
2023-04-16T10:39:10.926Z,993.84
2023-04-16T10:40:10.608Z,993.82
2023-04-16T10:41:10.623Z,993.85
2023-04-16T10:42:10.633Z,993.88
2023-04-16T10:43:10.588Z,993.86
2023-04-16T10:44:10.579Z,993.88
2023-04-16T10:45:10.760Z,993.89
2023-04-16T10:46:10.573Z,993.89
2023-04-16T10:47:10.552Z,993.85
2023-04-16T10:48:10.544Z,993.87
2023-04-16T10:49:10.644Z,993.86
2023-04-16T10:50:10.515Z,993.88
2023-04-16T10:51:10.717Z,993.83
2023-04-16T10:52:10.492Z,993.86
2023-04-16T10:53:10.499Z,993.87
2023-04-16T10:54:10.484Z,993.87
2023-04-16T10:55:10.449Z,993.84
2023-04-16T10:56:10.438Z,993.84
2023-04-16T10:57:10.481Z,993.91
2023-04-16T10:58:10.465Z,993.89
2023-04-16T10:59:10.757Z,993.90
2023-04-16T11:00:10.397Z,993.89
2023-04-16T11:01:10.541Z,993.95
2023-04-16T11:02:10.532Z,993.89
2023-04-16T11:03:10.498Z,993.88
2023-04-16T11:04:10.488Z,993.87
2023-04-16T11:05:10.346Z,993.90
2023-04-16T11:06:10.594Z,993.96
2023-04-16T11:07:10.337Z,993.92
2023-04-16T11:08:10.333Z,993.92
2023-04-16T11:09:10.607Z,993.93
2023-04-16T11:10:10.315Z,993.95
2023-04-16T11:11:10.327Z,993.93
2023-04-16T11:12:10.306Z,993.93
2023-04-16T11:13:10.279Z,993.93
2023-04-16T11:14:10.342Z,993.92
2023-04-16T11:15:10.259Z,993.94
2023-04-16T11:16:10.461Z,993.93
2023-04-16T11:17:10.243Z,993.94
2023-04-16T11:18:10.279Z,993.94
2023-04-16T11:19:10.408Z,993.95
2023-04-16T11:20:18.070Z,993.95
2023-04-16T11:21:10.195Z,993.94
2023-04-16T11:22:10.180Z,993.99
2023-04-16T11:23:10.202Z,993.99
2023-04-16T11:24:10.166Z,993.98
2023-04-16T11:25:10.162Z,994.00
2023-04-16T11:26:10.135Z,993.98
2023-04-16T11:27:10.145Z,994.01
2023-04-16T11:28:10.145Z,994.01
2023-04-16T11:29:10.346Z,994.03
2023-04-16T11:30:10.124Z,994.03
2023-04-16T11:31:10.123Z,994.02
2023-04-16T11:32:10.083Z,994.06
2023-04-16T11:33:10.049Z,994.08
2023-04-16T11:34:10.252Z,994.08
2023-04-16T11:35:10.068Z,994.06
2023-04-16T11:36:10.046Z,994.08
2023-04-16T11:37:10.046Z,994.06
2023-04-16T11:38:10.027Z,994.11
2023-04-16T11:39:10.248Z,994.10
2023-04-16T11:40:09.978Z,994.10
2023-04-16T11:41:09.974Z,994.13
2023-04-16T11:42:10.026Z,994.13
2023-04-16T11:43:09.957Z,994.15
2023-04-16T11:44:09.937Z,994.12
2023-04-16T11:45:10.232Z,994.16
2023-04-16T11:46:24.048Z,994.14
2023-04-16T11:47:09.973Z,994.15
2023-04-16T11:48:11.146Z,994.21
2023-04-16T11:49:10.286Z,994.21
2023-04-16T11:50:09.877Z,994.25
2023-04-16T11:51:09.906Z,994.19
2023-04-16T11:52:09.895Z,994.21
2023-04-16T11:53:09.913Z,994.22
2023-04-16T11:54:12.017Z,994.26
2023-04-16T11:55:09.844Z,994.23
2023-04-16T11:56:10.281Z,994.26
2023-04-16T11:57:09.830Z,994.23
2023-04-16T11:58:09.798Z,994.28
2023-04-16T11:59:10.146Z,994.27
2023-04-16T12:00:10.654Z,994.31
2023-04-16T12:01:09.782Z,994.30
2023-04-16T12:02:09.898Z,994.35
2023-04-16T12:03:10.039Z,994.32
2023-04-16T12:04:10.271Z,994.33
2023-04-16T12:05:10.035Z,994.33
2023-04-16T12:06:09.715Z,994.35
2023-04-16T12:07:09.730Z,994.33
2023-04-16T12:08:09.722Z,994.36
2023-04-16T12:09:10.038Z,994.36
2023-04-16T12:10:09.698Z,994.37
2023-04-16T12:11:09.707Z,994.37
2023-04-16T12:12:09.719Z,994.35
2023-04-16T12:13:09.638Z,994.37
2023-04-16T12:14:09.663Z,994.33
2023-04-16T12:15:09.696Z,994.37
2023-04-16T12:16:09.753Z,994.40
2023-04-16T12:17:09.733Z,994.39
2023-04-16T12:18:09.792Z,994.39
2023-04-16T12:19:09.926Z,994.41
2023-04-16T12:20:09.608Z,994.39
2023-04-16T12:21:09.584Z,994.37
2023-04-16T12:22:09.557Z,994.40
2023-04-16T12:23:09.760Z,994.37
2023-04-16T12:24:09.542Z,994.39
2023-04-16T12:25:09.727Z,994.40
2023-04-16T12:26:09.525Z,994.39
2023-04-16T12:27:09.497Z,994.42
2023-04-16T12:28:09.538Z,994.41
2023-04-16T12:29:09.842Z,994.38